Pagina principale
METAR-TAF:

METAR-TAF

Aeroporti :

Wittering, Inghilterra

latitudine: 52-37N, longitudine: 000-28W, altezza: 84 m

Osservazione

Il bollettino è stato emesso 1 ora e 21 minuti fa, alle 21:50 UTC
Vento 7 kt da ovest/sud-ovest
Temperature 19°C
Umidità 88%
Pressione 1020 hPa
Visibilità 10 km o più

METAR: EGXT 222150Z AUTO 25007KT 9999 NCD 19/17 Q1020

Ora: 00:11 (23:11 UTC)

Previsione

Il bollettino è stato emesso 9 ore e 51 minuti fa, alle 13:20 UTC
Previsione valida dal 22 alle 15 UTC al 22 alle 18 UTC
Vento 16 kt da ovest/sud-ovest con raffiche fino a 27 kt
Visibilità 10 km o più
Nubi sparse ad un'altezza di 3000 ft
Evoluzione graduale
dal 22 alle 15 UTC al 22 alle 18 UTC
Vento 14 kt da sud-ovest

TAF: EGXT 221320Z 2215/2218 24016G27KT 9999 SCT030 BECMG 2215/2218 23014KT

Osservazioni e previsioni meteorologiche di più di 4000 aeroporti (messaggi METAR e TAF).

Le stazioni disponibili sono rappresentate dai dischi gialli e rossi sulla carta.

Puntare il mouse per vedere il nome della stazione.

Clicca sopra per visualizzare le osservazioni e previsioni meteorologiche.

Per cambiare la mappa : fare clic sui pulsanti verdi con una croce nera per ingrandire, il pulsante verde con un trattino per diminuire, o sulla freccia verde per le mappe adiacenti.


METAR-TAF: